Time;durP1;ratioP1;P1;durP2;ratioP2;P2;SDS_P1;SDS_P2;PMS_P1;PMS_P2;Temp;Humidity;BMP_temperature;BMP_pressure;BME280_temperature;BME280_humidity;BME280_pressure;Samples;Min_cycle;Max_cycle;Signal;HPM_P1;HPM_P2
2022/05/28 00:02:09;;;;;;;;;;;;;;;14.87;100.00;99301.25;5024905;28;19920;-56
2022/05/28 00:04:35;;;;;;;;;;;;;;;14.90;100.00;99301.09;5027184;28;19923;-57
2022/05/28 00:07:02;;;;;;;;;;;;;;;15.29;100.00;99286.38;5027068;28;19952;-57
2022/05/28 00:09:27;;;;;;;;;;;;;;;14.83;100.00;99302.28;5025379;28;20015;-56
2022/05/28 00:11:53;;;;;;;;;;;;;;;14.88;100.00;99292.53;5026078;28;19923;-57
2022/05/28 00:14:18;;;;;;;;;;;;;;;14.90;100.00;99289.88;5026774;28;19921;-57
2022/05/28 00:16:45;;;;;;;;;;;;;;;14.72;100.00;99286.34;5027213;28;20007;-58
2022/05/28 00:19:11;;;;;;;;;;;;;;;14.80;100.00;99294.63;5023269;28;19921;-57
2022/05/28 00:21:36;;;;;;;;;;;;;;;14.35;100.00;99290.53;5024576;28;19921;-56
2022/05/28 00:24:02;;;;;;;;;;;;;;;14.43;100.00;99283.25;5025122;28;20337;-56
2022/05/28 00:26:27;;;;;;;;;;;;;;;14.23;100.00;99292.72;5028792;28;19921;-57
2022/05/28 00:28:52;;;;;;;;;;;;;;;15.18;100.00;99268.69;5028186;28;19928;-56
2022/05/28 00:31:18;;;;;;;;;;;;;;;14.60;100.00;99278.22;5027626;28;19974;-56
2022/05/28 00:33:43;;;;;;;;;;;;;;;14.32;100.00;99278.53;5026037;28;19920;-57
2022/05/28 00:36:10;;;;;;;;;;;;;;;15.46;100.00;99269.09;5027409;28;19928;-57
2022/05/28 00:38:35;;;;;;;;;;;;;;;15.04;100.00;99274.53;5024832;28;19963;-57
2022/05/28 00:41:01;;;;;;;;;;;;;;;14.99;100.00;99279.09;5011116;28;20022;-57
2022/05/28 00:43:27;;;;;;;;;;;;;;;15.09;100.00;99271.72;5024625;28;19921;-57
2022/05/28 00:45:55;;;;;;;;;;;;;;;14.71;100.00;99274.28;5028719;28;20389;-57
2022/05/28 00:48:21;;;;;;;;;;;;;;;14.58;100.00;99274.84;5007881;28;19925;-57
2022/05/28 00:50:46;;;;;;;;;;;;;;;14.54;100.00;99275.00;5028175;28;20007;-56
2022/05/28 00:53:11;;;;;;;;;;;;;;;14.77;100.00;99274.84;5026332;28;20151;-57
2022/05/28 00:55:37;;;;;;;;;;;;;;;14.40;100.00;99275.63;5025683;28;20006;-54
2022/05/28 00:58:06;;;;;;;;;;;;;;;14.56;100.00;99266.28;5023960;28;19951;-56
2022/05/28 01:00:33;;;;;;;;;;;;;;;14.56;100.00;99276.66;5024747;28;20421;-56
2022/05/28 01:02:58;;;;;;;;;;;;;;;14.13;100.00;99273.28;5022749;28;19920;-57
2022/05/28 01:05:31;;;;;;;;;;;;;;;14.42;100.00;99266.03;5024167;28;19921;-56
2022/05/28 01:08:14;;;;;;;;;;;;;;;14.12;100.00;99271.63;5007937;28;19925;-56
2022/05/28 01:10:51;;;;;;;;;;;;;;;14.44;100.00;99261.63;5025173;28;20605;-56
2022/05/28 01:13:19;;;;;;;;;;;;;;;14.29;100.00;99264.88;5007519;28;19931;-57
2022/05/28 01:15:46;;;;;;;;;;;;;;;14.52;100.00;99256.94;5009162;28;19964;-57
2022/05/28 01:18:15;;;;;;;;;;;;;;;14.44;100.00;99252.09;5005107;28;20302;-56
2022/05/28 01:20:41;;;;;;;;;;;;;;;14.43;100.00;99254.75;5023127;28;19964;-57
2022/05/28 01:23:10;;;;;;;;;;;;;;;14.56;100.00;99255.09;5012896;28;19983;-57
2022/05/28 01:25:44;;;;;;;;;;;;;;;14.40;100.00;99247.13;5031396;28;19921;-57
2022/05/28 01:28:11;;;;;;;;;;;;;;;14.20;100.00;99247.97;5030522;28;19924;-57
2022/05/28 01:30:38;;;;;;;;;;;;;;;14.04;100.00;99252.13;5014677;28;19970;-57
2022/05/28 01:33:03;;;;;;;;;;;;;;;14.30;100.00;99253.59;5015035;28;19934;-57
2022/05/28 01:35:28;;;;;;;;;;;;;;;14.16;100.00;99249.88;5013635;28;19917;-57
2022/05/28 01:37:54;;;;;;;;;;;;;;;14.11;100.00;99253.53;5013216;28;20423;-57
2022/05/28 01:40:19;;;;;;;;;;;;;;;14.05;100.00;99254.66;5031867;28;19917;-57
2022/05/28 01:42:45;;;;;;;;;;;;;;;13.81;100.00;99257.34;5030705;28;20686;-57
2022/05/28 01:45:11;;;;;;;;;;;;;;;13.95;100.00;99250.75;5010364;28;19924;-57
2022/05/28 01:47:36;;;;;;;;;;;;;;;14.22;100.00;99246.16;5012026;28;19924;-56
2022/05/28 01:50:02;;;;;;;;;;;;;;;14.08;100.00;99236.38;5028983;28;19917;-57
2022/05/28 01:52:27;;;;;;;;;;;;;;;14.17;100.00;99233.41;5016928;28;19925;-57
2022/05/28 01:54:53;;;;;;;;;;;;;;;14.23;100.00;99227.97;5012953;28;19966;-57
2022/05/28 01:57:18;;;;;;;;;;;;;;;14.05;100.00;99233.94;5015898;28;20027;-56
2022/05/28 01:59:43;;;;;;;;;;;;;;;13.90;100.00;99240.59;5013563;28;19920;-57
2022/05/28 02:02:10;;;;;;;;;;;;;;;14.07;100.00;99226.94;5010091;28;19920;-57
2022/05/28 02:04:36;;;;;;;;;;;;;;;14.03;100.00;99235.75;5032808;28;19920;-57
2022/05/28 02:07:05;;;;;;;;;;;;;;;14.26;100.00;99231.34;5029222;28;20861;-57
2022/05/28 02:09:34;;;;;;;;;;;;;;;14.41;100.00;99231.50;5042267;28;20207;-57
2022/05/28 02:12:02;;;;;;;;;;;;;;;14.26;100.00;99226.16;5019380;28;20016;-57
2022/05/28 02:14:33;;;;;;;;;;;;;;;14.23;100.00;99227.09;5030830;28;19973;-57
2022/05/28 02:17:17;;;;;;;;;;;;;;;14.23;100.00;99222.78;5014318;28;20374;-57
2022/05/28 02:19:45;;;;;;;;;;;;;;;14.06;100.00;99230.44;5030480;28;19951;-57
2022/05/28 02:22:18;;;;;;;;;;;;;;;14.32;100.00;99231.03;5030068;28;19927;-57
2022/05/28 02:24:50;;;;;;;;;;;;;;;14.04;100.00;99231.41;5012096;28;20065;-56
2022/05/28 02:27:15;;;;;;;;;;;;;;;14.30;100.00;99225.09;5012023;28;19925;-57
2022/05/28 02:29:41;;;;;;;;;;;;;;;13.98;100.00;99232.50;5033776;28;19916;-56
2022/05/28 02:32:14;;;;;;;;;;;;;;;13.76;100.00;99230.81;5017288;28;19928;-57
2022/05/28 02:34:39;;;;;;;;;;;;;;;14.05;100.00;99233.94;5028731;28;19955;-57
2022/05/28 02:37:04;;;;;;;;;;;;;;;14.03;100.00;99227.97;5026290;28;20686;-56
2022/05/28 02:39:29;;;;;;;;;;;;;;;14.12;100.00;99224.16;5025931;28;19917;-56
2022/05/28 02:41:56;;;;;;;;;;;;;;;13.69;100.00;99226.78;5027846;28;19921;-57
2022/05/28 02:44:23;;;;;;;;;;;;;;;13.55;100.00;99237.72;5030296;28;19959;-57
2022/05/28 02:46:48;;;;;;;;;;;;;;;13.75;100.00;99231.72;5028591;28;20030;-56
2022/05/28 02:49:13;;;;;;;;;;;;;;;13.74;100.00;99219.69;5011807;28;20632;-57
2022/05/28 02:51:39;;;;;;;;;;;;;;;13.52;100.00;99218.88;5030289;28;19925;-57
2022/05/28 02:54:04;;;;;;;;;;;;;;;13.64;100.00;99220.97;5028145;28;20002;-57
2022/05/28 02:56:29;;;;;;;;;;;;;;;13.96;100.00;99218.78;5033379;28;19924;-55
2022/05/28 02:58:54;;;;;;;;;;;;;;;13.83;100.00;99225.38;5036186;28;19973;-56
2022/05/28 03:01:23;;;;;;;;;;;;;;;13.77;100.00;99224.72;5031003;28;20396;-57
2022/05/28 03:03:49;;;;;;;;;;;;;;;13.52;100.00;99224.03;5030852;28;19921;-57
2022/05/28 03:06:14;;;;;;;;;;;;;;;13.76;100.00;99220.47;5029372;28;20099;-57
2022/05/28 03:08:40;;;;;;;;;;;;;;;13.64;100.00;99218.38;5029269;28;19927;-57
2022/05/28 03:11:05;;;;;;;;;;;;;;;13.13;100.00;99222.09;5032798;28;19916;-56
2022/05/28 03:13:30;;;;;;;;;;;;;;;13.64;100.00;99215.81;5031712;28;20496;-55
2022/05/28 03:15:56;;;;;;;;;;;;;;;13.57;100.00;99216.94;5032595;28;20312;-57
2022/05/28 03:18:21;;;;;;;;;;;;;;;13.19;100.00;99217.53;5027388;28;20435;-57
2022/05/28 03:20:46;;;;;;;;;;;;;;;13.66;100.00;99224.34;5025340;28;20414;-56
2022/05/28 03:23:11;;;;;;;;;;;;;;;13.49;100.00;99224.19;5026484;28;19921;-57
2022/05/28 03:25:36;;;;;;;;;;;;;;;13.28;100.00;99226.72;5032230;28;19923;-57
2022/05/28 03:28:02;;;;;;;;;;;;;;;13.31;100.00;99229.16;5028536;28;19932;-57
2022/05/28 03:30:27;;;;;;;;;;;;;;;13.45;100.00;99220.03;5028474;28;19971;-57
2022/05/28 03:32:52;;;;;;;;;;;;;;;13.23;100.00;99223.44;5026106;28;19921;-57
2022/05/28 03:35:17;;;;;;;;;;;;;;;13.07;100.00;99222.34;5029551;28;19917;-57
2022/05/28 03:37:43;;;;;;;;;;;;;;;13.65;100.00;99225.22;5027271;28;19921;-53
2022/05/28 03:40:08;;;;;;;;;;;;;;;13.64;100.00;99226.16;5023636;28;19949;-53
2022/05/28 03:42:33;;;;;;;;;;;;;;;13.37;100.00;99226.34;5028374;28;19921;-53
2022/05/28 03:44:59;;;;;;;;;;;;;;;13.34;100.00;99231.66;5024833;28;19921;-53
2022/05/28 03:47:24;;;;;;;;;;;;;;;13.44;100.00;99228.69;5024633;28;19932;-53
2022/05/28 03:49:49;;;;;;;;;;;;;;;13.47;100.00;99225.97;5024582;28;20002;-50
2022/05/28 03:52:14;;;;;;;;;;;;;;;13.54;100.00;99232.59;5005932;28;19917;-51
2022/05/28 03:54:43;;;;;;;;;;;;;;;13.78;100.00;99228.16;5010385;28;19920;-53
2022/05/28 03:57:10;;;;;;;;;;;;;;;13.62;100.00;99225.38;5025816;28;19917;-53
2022/05/28 03:59:35;;;;;;;;;;;;;;;13.42;100.00;99233.09;5008053;28;19966;-54
2022/05/28 04:02:01;;;;;;;;;;;;;;;13.29;100.00;99235.31;5026186;28;19917;-53
2022/05/28 04:04:26;;;;;;;;;;;;;;;13.52;100.00;99234.41;5022204;28;19925;-51
2022/05/28 04:06:52;;;;;;;;;;;;;;;13.09;100.00;99233.47;5027638;28;19936;-54
2022/05/28 04:09:17;;;;;;;;;;;;;;;13.50;100.00;99231.03;5009720;28;19921;-53
2022/05/28 04:11:42;;;;;;;;;;;;;;;13.72;100.00;99243.94;5026514;28;20023;-54
2022/05/28 04:14:07;;;;;;;;;;;;;;;13.05;100.00;99250.03;5026591;28;19928;-52
2022/05/28 04:16:33;;;;;;;;;;;;;;;12.92;100.00;99252.22;5025871;28;20024;-52
2022/05/28 04:18:58;;;;;;;;;;;;;;;12.71;100.00;99252.09;5016781;28;20397;-52
2022/05/28 04:21:23;;;;;;;;;;;;;;;12.60;100.00;99259.41;5033826;28;20467;-51
2022/05/28 04:23:48;;;;;;;;;;;;;;;12.49;100.00;99272.69;5034695;28;20739;-52
2022/05/28 04:26:14;;;;;;;;;;;;;;;12.80;100.00;99245.75;5040571;28;19948;-51
2022/05/28 04:28:39;;;;;;;;;;;;;;;12.26;100.00;99252.84;5036120;28;19931;-55
2022/05/28 04:31:04;;;;;;;;;;;;;;;12.69;100.00;99263.41;5036888;28;19977;-53
2022/05/28 04:33:29;;;;;;;;;;;;;;;12.32;100.00;99265.56;5034517;28;20024;-53
2022/05/28 04:35:55;;;;;;;;;;;;;;;12.67;100.00;99262.63;5036537;28;19960;-55
2022/05/28 04:38:20;;;;;;;;;;;;;;;12.88;100.00;99266.16;5039423;28;20069;-53
2022/05/28 04:40:45;;;;;;;;;;;;;;;12.35;100.00;99273.19;5034613;28;19962;-50
2022/05/28 04:43:10;;;;;;;;;;;;;;;12.84;100.00;99273.19;5025483;28;19920;-51
2022/05/28 04:45:36;;;;;;;;;;;;;;;12.88;100.00;99279.06;5030990;28;20578;-50
2022/05/28 04:48:01;;;;;;;;;;;;;;;13.06;100.00;99280.97;5021913;28;19925;-52
2022/05/28 04:50:26;;;;;;;;;;;;;;;12.76;100.00;99281.19;5035344;28;20001;-51
2022/05/28 04:52:52;;;;;;;;;;;;;;;12.86;100.00;99286.88;5036751;28;19920;-54
2022/05/28 04:55:17;;;;;;;;;;;;;;;12.91;100.00;99284.97;5036509;28;19917;-52
2022/05/28 04:57:42;;;;;;;;;;;;;;;13.12;100.00;99287.66;5028268;28;19960;-52
2022/05/28 05:00:10;;;;;;;;;;;;;;;13.19;100.00;99295.13;5016258;28;20298;-51
2022/05/28 05:02:35;;;;;;;;;;;;;;;12.65;100.00;99295.41;5028245;28;19921;-51
2022/05/28 05:05:00;;;;;;;;;;;;;;;12.93;100.00;99293.53;5028147;28;20025;-52
2022/05/28 05:07:26;;;;;;;;;;;;;;;12.95;100.00;99302.06;5030266;28;19928;-52
2022/05/28 05:09:51;;;;;;;;;;;;;;;13.31;100.00;99306.78;5023494;28;19921;-53
2022/05/28 05:12:16;;;;;;;;;;;;;;;13.43;100.00;99307.19;5026064;28;19920;-54
2022/05/28 05:14:41;;;;;;;;;;;;;;;12.97;100.00;99302.00;5027102;28;19921;-53
2022/05/28 05:17:07;;;;;;;;;;;;;;;13.15;100.00;99310.81;5032563;28;20485;-54
2022/05/28 05:19:32;;;;;;;;;;;;;;;13.23;100.00;99311.38;5032784;28;19932;-52
2022/05/28 05:21:57;;;;;;;;;;;;;;;12.99;100.00;99313.13;5026389;28;20353;-52
2022/05/28 05:24:23;;;;;;;;;;;;;;;12.86;100.00;99307.53;5028947;28;20050;-53
2022/05/28 05:26:48;;;;;;;;;;;;;;;13.15;100.00;99308.22;5026655;28;20018;-54
2022/05/28 05:29:13;;;;;;;;;;;;;;;12.96;100.00;99308.91;5027035;28;19995;-51
2022/05/28 05:31:40;;;;;;;;;;;;;;;13.30;100.00;99315.44;5027384;28;19993;-54
2022/05/28 05:34:05;;;;;;;;;;;;;;;13.18;100.00;99318.44;5014373;28;19924;-54
2022/05/28 05:36:31;;;;;;;;;;;;;;;13.73;100.00;99316.38;5028683;28;19917;-52
2022/05/28 05:38:56;;;;;;;;;;;;;;;13.58;100.00;99320.38;5028694;28;20045;-54
2022/05/28 05:41:21;;;;;;;;;;;;;;;13.04;100.00;99321.53;5025197;28;19920;-52
2022/05/28 05:43:46;;;;;;;;;;;;;;;13.33;100.00;99317.91;5026830;28;19921;-54
2022/05/28 05:46:13;;;;;;;;;;;;;;;13.12;100.00;99327.28;5025232;28;19960;-54
2022/05/28 05:48:39;;;;;;;;;;;;;;;13.75;100.00;99332.69;5021961;28;19935;-54
2022/05/28 05:51:05;;;;;;;;;;;;;;;13.68;100.00;99326.03;5023547;28;19925;-54
2022/05/28 05:53:30;;;;;;;;;;;;;;;13.43;100.00;99333.91;5023706;28;19921;-55
2022/05/28 05:55:55;;;;;;;;;;;;;;;13.89;100.00;99326.06;5023882;28;19943;-54
2022/05/28 05:58:21;;;;;;;;;;;;;;;14.29;100.00;99335.66;5024049;28;19966;-53
2022/05/28 06:00:46;;;;;;;;;;;;;;;14.23;100.00;99321.22;5024925;28;20152;-53
2022/05/28 06:03:15;;;;;;;;;;;;;;;14.13;100.00;99322.50;5021956;28;20033;-55
2022/05/28 06:05:40;;;;;;;;;;;;;;;13.73;100.00;99328.44;5022836;28;19943;-53
2022/05/28 06:08:06;;;;;;;;;;;;;;;14.02;100.00;99328.09;5025676;28;20824;-55
2022/05/28 06:10:31;;;;;;;;;;;;;;;13.76;100.00;99334.34;5025123;28;19975;-53
2022/05/28 06:12:56;;;;;;;;;;;;;;;13.63;100.00;99333.13;5031334;28;19924;-54
2022/05/28 06:15:21;;;;;;;;;;;;;;;13.54;100.00;99333.50;5030771;28;20023;-52
2022/05/28 06:17:48;;;;;;;;;;;;;;;13.84;100.00;99322.84;5029433;28;20016;-55
2022/05/28 06:20:13;;;;;;;;;;;;;;;13.54;100.00;99330.91;5032554;28;19920;-54
2022/05/28 06:22:38;;;;;;;;;;;;;;;13.72;100.00;99330.19;5027936;28;19924;-55
2022/05/28 06:25:04;;;;;;;;;;;;;;;13.49;100.00;99330.25;5027011;28;19929;-54
2022/05/28 06:27:31;;;;;;;;;;;;;;;13.39;100.00;99343.53;5027305;28;19968;-54
2022/05/28 06:29:56;;;;;;;;;;;;;;;13.26;100.00;99342.28;5030304;28;19921;-52
2022/05/28 06:32:21;;;;;;;;;;;;;;;13.35;100.00;99341.97;5036300;28;19917;-53
2022/05/28 06:34:46;;;;;;;;;;;;;;;13.31;100.00;99344.72;5036840;28;19916;-50
2022/05/28 06:37:12;;;;;;;;;;;;;;;14.27;100.00;99334.03;5029826;28;19921;-49
2022/05/28 06:39:37;;;;;;;;;;;;;;;13.70;100.00;99347.53;5032171;28;19994;-53
2022/05/28 06:42:03;;;;;;;;;;;;;;;13.80;100.00;99342.84;5031060;28;19975;-51
2022/05/28 06:44:28;;;;;;;;;;;;;;;13.89;100.00;99345.06;5031326;28;19917;-51
2022/05/28 06:46:53;;;;;;;;;;;;;;;14.10;100.00;99338.16;5032255;28;19920;-53
2022/05/28 06:49:19;;;;;;;;;;;;;;;13.71;100.00;99340.63;5032973;28;19932;-50
2022/05/28 06:51:44;;;;;;;;;;;;;;;14.63;100.00;99335.09;5035806;28;20420;-54
2022/05/28 06:54:09;;;;;;;;;;;;;;;14.87;100.00;99326.31;5035397;28;20954;-52
2022/05/28 06:56:34;;;;;;;;;;;;;;;15.28;100.00;99321.84;5029339;28;20527;-52
2022/05/28 06:59:00;;;;;;;;;;;;;;;16.09;100.00;99324.94;5031835;28;19921;-52
2022/05/28 07:01:25;;;;;;;;;;;;;;;15.97;100.00;99315.16;5028589;28;20800;-54
2022/05/28 07:03:50;;;;;;;;;;;;;;;15.65;100.00;99320.97;5029421;28;20396;-53
2022/05/28 07:06:15;;;;;;;;;;;;;;;14.89;100.00;99329.66;5018513;28;19960;-50
2022/05/28 07:08:41;;;;;;;;;;;;;;;14.88;100.00;99328.00;5032075;28;19930;-51
2022/05/28 07:11:06;;;;;;;;;;;;;;;14.40;100.00;99332.63;5035480;28;20369;-53
2022/05/28 07:13:31;;;;;;;;;;;;;;;14.56;100.00;99338.84;5030294;28;20884;-52
2022/05/28 07:15:57;;;;;;;;;;;;;;;14.01;100.00;99338.56;5031298;28;19957;-51
2022/05/28 07:18:22;;;;;;;;;;;;;;;13.87;100.00;99335.69;5010182;28;20294;-55
2022/05/28 07:20:47;;;;;;;;;;;;;;;14.21;100.00;99333.38;5014701;28;20377;-55
2022/05/28 07:23:14;;;;;;;;;;;;;;;13.85;100.00;99330.56;5029282;28;19971;-53
2022/05/28 07:25:39;;;;;;;;;;;;;;;13.72;100.00;99332.78;5028275;28;19924;-53
2022/05/28 07:28:24;;;;;;;;;;;;;;;14.03;100.00;99336.75;5030240;28;19925;-53
2022/05/28 07:30:50;;;;;;;;;;;;;;;15.63;100.00;99321.94;5029241;28;20421;-51
2022/05/28 07:33:15;;;;;;;;;;;;;;;16.41;100.00;99312.09;5030650;28;19944;-54
2022/05/28 07:35:41;;;;;;;;;;;;;;;16.34;100.00;99313.31;5026148;28;19921;-52
2022/05/28 07:38:06;;;;;;;;;;;;;;;15.32;100.00;99320.78;5024737;28;19917;-53
2022/05/28 07:40:34;;;;;;;;;;;;;;;15.09;100.00;99321.00;5011462;28;19994;-53
2022/05/28 07:42:59;;;;;;;;;;;;;;;14.82;100.00;99323.91;5011524;28;19974;-53
2022/05/28 07:45:24;;;;;;;;;;;;;;;15.28;100.00;99319.25;5033004;28;20841;-54
2022/05/28 07:47:49;;;;;;;;;;;;;;;14.90;100.00;99329.63;5031024;28;19990;-54
2022/05/28 07:50:15;;;;;;;;;;;;;;;15.22;100.00;99322.13;5027444;28;20047;-53
2022/05/28 07:52:40;;;;;;;;;;;;;;;15.89;100.00;99313.75;5028514;28;19924;-53
2022/05/28 07:55:05;;;;;;;;;;;;;;;15.79;100.00;99315.13;5026351;28;20039;-54
2022/05/28 07:57:31;;;;;;;;;;;;;;;15.24;100.00;99336.72;5025045;28;19960;-53
2022/05/28 07:59:56;;;;;;;;;;;;;;;14.67;100.00;99324.59;5029469;28;19925;-54
2022/05/28 08:02:21;;;;;;;;;;;;;;;14.44;100.00;99326.41;5029015;28;19917;-54
2022/05/28 08:04:47;;;;;;;;;;;;;;;14.99;100.00;99326.59;5026040;28;20385;-53
2022/05/28 08:07:12;;;;;;;;;;;;;;;16.37;100.00;99314.00;5021019;28;20635;-54
2022/05/28 08:09:37;;;;;;;;;;;;;;;15.93;100.00;99308.44;5024197;28;19921;-52
2022/05/28 08:12:02;;;;;;;;;;;;;;;15.16;100.00;99319.81;5010126;28;19935;-53
2022/05/28 08:14:28;;;;;;;;;;;;;;;15.09;100.00;99326.19;5027143;28;19921;-52
2022/05/28 08:16:53;;;;;;;;;;;;;;;16.00;100.00;99309.81;5031952;28;19927;-52
2022/05/28 08:19:18;;;;;;;;;;;;;;;15.83;100.00;99306.28;5031933;28;20624;-53
2022/05/28 08:24:27;;;;;;;;;;;;;;;15.55;100.00;99319.69;5032161;28;19928;-55
2022/05/28 08:26:53;;;;;;;;;;;;;;;15.69;100.00;99317.31;5024636;28;19917;-50
2022/05/28 08:29:22;;;;;;;;;;;;;;;15.04;100.00;99319.44;5027694;28;19972;-54
2022/05/28 08:31:47;;;;;;;;;;;;;;;15.31;100.00;99321.72;5026880;28;19921;-55
2022/05/28 08:34:12;;;;;;;;;;;;;;;14.84;100.00;99327.28;5007633;28;19917;-52
2022/05/28 08:36:37;;;;;;;;;;;;;;;15.17;100.00;99319.75;5025472;28;19928;-54
2022/05/28 08:39:03;;;;;;;;;;;;;;;15.31;100.00;99321.72;5015862;28;19928;-54
2022/05/28 08:41:35;;;;;;;;;;;;;;;15.61;100.00;99313.41;5027938;28;19928;-55
2022/05/28 08:44:16;;;;;;;;;;;;;;;16.58;100.00;99306.88;5015234;28;19916;-53
2022/05/28 08:46:43;;;;;;;;;;;;;;;16.84;100.00;99307.31;5031299;28;19917;-53
2022/05/28 08:49:08;;;;;;;;;;;;;;;16.78;100.00;99302.38;5030493;28;20413;-54
2022/05/28 08:51:34;;;;;;;;;;;;;;;16.92;100.00;99307.72;5013335;28;19952;-55
2022/05/28 08:54:08;;;;;;;;;;;;;;;16.30;100.00;99303.06;5034384;28;20023;-54
2022/05/28 08:56:33;;;;;;;;;;;;;;;16.28;100.00;99302.34;5030694;28;19925;-54
2022/05/28 08:59:13;;;;;;;;;;;;;;;16.29;100.00;99304.00;5028445;28;19963;-53
2022/05/28 09:01:38;;;;;;;;;;;;;;;16.69;100.00;99301.97;5011116;28;19920;-51
2022/05/28 09:04:05;;;;;;;;;;;;;;;16.56;100.00;99311.31;5010711;28;19925;-54
2022/05/28 09:06:38;;;;;;;;;;;;;;;16.96;99.71;99301.44;5007964;28;19923;-53
2022/05/28 09:09:03;;;;;;;;;;;;;;;16.91;98.17;99313.84;5007247;28;19963;-53
2022/05/28 09:11:33;;;;;;;;;;;;;;;16.96;95.67;99306.63;5011391;28;20020;-57
2022/05/28 09:14:12;;;;;;;;;;;;;;;16.28;99.19;99307.53;5005972;28;19927;-57
2022/05/28 09:16:37;;;;;;;;;;;;;;;16.45;100.00;99303.22;5009869;28;19927;-57
2022/05/28 09:19:04;;;;;;;;;;;;;;;17.00;97.56;99308.16;5013525;28;20294;-57
2022/05/28 09:21:29;;;;;;;;;;;;;;;17.26;94.46;99300.69;5014996;28;20169;-57
2022/05/28 09:23:54;;;;;;;;;;;;;;;17.01;92.65;99294.22;5024622;28;19917;-58
2022/05/28 09:26:42;;;;;;;;;;;;;;;16.45;96.02;99303.22;5026887;28;19921;-57
2022/05/28 09:29:17;;;;;;;;;;;;;;;16.45;96.08;99300.63;5023079;28;19921;-58
2022/05/28 09:32:01;;;;;;;;;;;;;;;16.43;96.07;99311.09;5009494;28;20007;-58
2022/05/28 09:34:35;;;;;;;;;;;;;;;16.38;96.31;99305.28;5032718;28;19917;-57
2022/05/28 09:37:03;;;;;;;;;;;;;;;16.96;93.34;99296.22;5027225;28;19917;-57
2022/05/28 09:39:44;;;;;;;;;;;;;;;16.74;94.17;99306.91;5027925;28;20461;-57
2022/05/28 09:42:24;;;;;;;;;;;;;;;16.69;91.87;99288.97;5007753;28;20003;-57
2022/05/28 09:44:56;;;;;;;;;;;;;;;16.72;92.75;99296.59;5033377;28;19939;-58
2022/05/28 09:47:22;;;;;;;;;;;;;;;17.90;95.37;99291.06;5014496;28;20298;-57
2022/05/28 09:49:50;;;;;;;;;;;;;;;17.03;92.50;99301.94;5030301;28;19944;-57
2022/05/28 09:52:34;;;;;;;;;;;;;;;16.05;92.26;99300.03;5029614;28;19924;-57
2022/05/28 09:55:18;;;;;;;;;;;;;;;16.45;92.46;99295.44;5033418;28;20016;-57
2022/05/28 09:58:01;;;;;;;;;;;;;;;16.93;92.80;99293.81;5016936;28;20399;-57
2022/05/28 10:00:26;;;;;;;;;;;;;;;17.33;92.85;99292.50;5010866;28;19970;-57
2022/05/28 10:05:55;;;;;;;;;;;;;;;17.56;91.33;99286.00;5011721;28;21276;-53
2022/05/28 10:08:28;;;;;;;;;;;;;;;17.75;89.58;99279.75;5030625;28;20255;-52
2022/05/28 10:10:54;;;;;;;;;;;;;;;17.60;91.21;99291.84;5027549;28;19920;-54
2022/05/28 10:13:20;;;;;;;;;;;;;;;17.71;89.52;99286.03;5029795;28;20008;-55
2022/05/28 10:15:46;;;;;;;;;;;;;;;17.29;90.79;99288.38;5013714;28;19924;-53
2022/05/28 10:18:12;;;;;;;;;;;;;;;18.21;93.75;99276.28;5030525;28;19932;-54
2022/05/28 10:20:37;;;;;;;;;;;;;;;18.72;87.05;99274.06;5012229;28;19920;-57
2022/05/28 10:23:03;;;;;;;;;;;;;;;18.59;88.95;99271.38;5027739;28;19921;-57
2022/05/28 10:25:34;;;;;;;;;;;;;;;19.08;86.08;99263.13;5028977;28;20917;-54
2022/05/28 10:28:00;;;;;;;;;;;;;;;18.72;83.78;99266.22;5014778;28;19973;-58
2022/05/28 10:30:25;;;;;;;;;;;;;;;18.89;86.62;99260.00;5016502;28;19921;-56
2022/05/28 10:32:51;;;;;;;;;;;;;;;19.76;80.52;99253.63;5036949;28;19986;-58
2022/05/28 10:35:20;;;;;;;;;;;;;;;18.91;83.54;99256.38;5038358;28;19919;-58
2022/05/28 10:37:45;;;;;;;;;;;;;;;18.15;85.10;99272.25;5030360;28;19924;-58
2022/05/28 10:40:30;;;;;;;;;;;;;;;18.33;82.87;99254.66;5030555;28;19923;-57
2022/05/28 10:42:57;;;;;;;;;;;;;;;17.91;87.29;99264.94;5032066;28;19931;-57
2022/05/28 10:45:22;;;;;;;;;;;;;;;17.76;83.96;99260.56;5011953;28;19928;-58
2022/05/28 10:47:54;;;;;;;;;;;;;;;17.95;84.86;99261.22;5014164;28;19952;-58
2022/05/28 10:50:29;;;;;;;;;;;;;;;17.48;82.22;99272.56;5029786;28;20024;-57
2022/05/28 10:53:00;;;;;;;;;;;;;;;17.42;84.04;99272.06;5010751;28;19921;-57
2022/05/28 10:55:34;;;;;;;;;;;;;;;17.52;85.72;99262.81;5032075;28;20671;-57
2022/05/28 10:58:18;;;;;;;;;;;;;;;17.61;81.25;99256.22;5032050;28;20805;-57
2022/05/28 11:00:50;;;;;;;;;;;;;;;17.42;80.98;99265.06;5029904;28;20264;-57
2022/05/28 11:03:15;;;;;;;;;;;;;;;18.58;79.91;99254.03;5014821;28;19921;-57
2022/05/28 11:05:41;;;;;;;;;;;;;;;17.84;80.60;99262.78;5028266;28;19921;-57
2022/05/28 11:08:12;;;;;;;;;;;;;;;18.09;83.34;99254.38;5031201;28;19921;-58
2022/05/28 11:10:45;;;;;;;;;;;;;;;17.97;81.26;99261.13;5026424;28;20393;-57
2022/05/28 11:13:13;;;;;;;;;;;;;;;17.66;85.20;99270.69;5013321;28;20439;-57
2022/05/28 11:15:54;;;;;;;;;;;;;;;17.77;86.34;99262.25;5028485;28;19948;-57
2022/05/28 11:18:31;;;;;;;;;;;;;;;17.91;85.61;99259.72;5009338;28;19927;-56
2022/05/28 11:21:10;;;;;;;;;;;;;;;18.23;83.08;99243.97;5031569;28;19913;-57
2022/05/28 11:23:46;;;;;;;;;;;;;;;18.95;82.84;99246.56;5014873;28;20224;-58
2022/05/28 11:26:17;;;;;;;;;;;;;;;19.46;81.03;99246.81;5012781;28;20399;-57
2022/05/28 11:28:54;;;;;;;;;;;;;;;19.57;81.63;99246.13;5030555;28;19936;-58
2022/05/28 11:31:29;;;;;;;;;;;;;;;19.35;81.52;99241.44;5016738;28;19924;-57
2022/05/28 11:33:54;;;;;;;;;;;;;;;20.57;80.27;99234.22;5026988;28;19923;-58
2022/05/28 11:36:24;;;;;;;;;;;;;;;20.16;78.29;99238.72;5034930;28;19913;-56
2022/05/28 11:39:00;;;;;;;;;;;;;;;20.58;77.66;99230.66;5009976;28;20777;-57
2022/05/28 11:41:29;;;;;;;;;;;;;;;20.43;77.72;99227.28;5028952;28;19939;-56
2022/05/28 11:44:03;;;;;;;;;;;;;;;20.17;75.82;99229.91;5028552;28;19966;-57
2022/05/28 11:46:28;;;;;;;;;;;;;;;19.21;75.97;99232.72;5030292;28;19917;-57
2022/05/28 11:51:43;;;;;;;;;;;;;;;17.67;81.58;99246.28;5027755;28;20531;-57
2022/05/28 11:54:15;;;;;;;;;;;;;;;18.06;82.69;99231.06;5010557;28;19916;-57
2022/05/28 11:56:40;;;;;;;;;;;;;;;18.25;80.34;99234.28;5031586;28;20039;-57
2022/05/28 11:59:11;;;;;;;;;;;;;;;17.58;81.81;99241.63;5012965;28;20547;-57
2022/05/28 12:01:41;;;;;;;;;;;;;;;19.37;82.77;99231.72;5033763;28;19935;-57
2022/05/28 12:04:06;;;;;;;;;;;;;;;20.21;77.19;99226.16;5010481;28;19944;-57
2022/05/28 12:06:34;;;;;;;;;;;;;;;20.60;74.51;99215.69;5003313;28;19988;-57
2022/05/28 12:09:05;;;;;;;;;;;;;;;21.24;74.09;99197.16;5011573;28;19974;-57
2022/05/28 12:11:30;;;;;;;;;;;;;;;21.23;75.28;99206.81;5027603;28;19924;-58
2022/05/28 12:13:56;;;;;;;;;;;;;;;21.54;78.01;99198.50;5028606;28;19921;-57
2022/05/28 12:16:22;;;;;;;;;;;;;;;20.11;75.34;99195.50;5014887;28;20996;-57
2022/05/28 12:18:54;;;;;;;;;;;;;;;21.38;70.40;99188.31;5026866;28;19928;-58
2022/05/28 12:21:26;;;;;;;;;;;;;;;21.06;76.13;99194.09;5011975;28;20533;-58
2022/05/28 12:24:02;;;;;;;;;;;;;;;21.27;73.11;99181.22;5026975;28;19951;-55
2022/05/28 12:26:47;;;;;;;;;;;;;;;21.61;76.92;99179.59;5006402;28;19917;-56
2022/05/28 12:29:23;;;;;;;;;;;;;;;21.74;70.55;99182.13;5025874;28;19924;-55
2022/05/28 12:31:48;;;;;;;;;;;;;;;22.26;63.55;99158.97;5025858;28;20350;-55
2022/05/28 12:34:19;;;;;;;;;;;;;;;20.22;62.78;99166.84;5031301;28;19923;-54
2022/05/28 12:36:46;;;;;;;;;;;;;;;21.04;60.71;99146.25;5018424;28;19917;-54
2022/05/28 12:39:14;;;;;;;;;;;;;;;20.60;62.03;99165.97;5029689;28;20006;-54
2022/05/28 12:41:39;;;;;;;;;;;;;;;20.51;71.21;99159.59;5030250;28;19991;-56
2022/05/28 12:44:21;;;;;;;;;;;;;;;20.13;69.75;99164.88;5012274;28;20350;-52
2022/05/28 12:46:51;;;;;;;;;;;;;;;19.96;67.49;99150.34;5027311;28;19943;-54
2022/05/28 12:49:22;;;;;;;;;;;;;;;19.36;70.14;99146.47;5025056;28;19921;-54
2022/05/28 12:51:56;;;;;;;;;;;;;;;20.00;73.82;99163.09;5028241;28;19916;-54